createdAt,value
2023-01-03T00:01:15.875Z,75.50
2023-01-03T00:03:42.653Z,75.50
2023-01-03T00:06:20.735Z,75.40
2023-01-03T00:08:48.483Z,75.50
2023-01-03T00:11:19.275Z,76.10
2023-01-03T00:13:46.349Z,76.20
2023-01-03T00:16:20.703Z,76.50
2023-01-03T00:18:47.470Z,76.50
2023-01-03T00:21:14.720Z,76.20
2023-01-03T00:23:41.461Z,76.50
2023-01-03T00:26:10.251Z,76.30
2023-01-03T00:28:37.182Z,76.20
2023-01-03T00:31:09.048Z,76.50
2023-01-03T00:33:40.587Z,76.20
2023-01-03T00:36:09.270Z,76.20
2023-01-03T00:38:36.699Z,75.90
2023-01-03T00:41:12.271Z,75.80
2023-01-03T00:43:40.079Z,76.00
2023-01-03T00:46:07.753Z,76.40
2023-01-03T00:48:35.204Z,76.80
2023-01-03T00:51:13.116Z,77.60
2023-01-03T00:53:40.484Z,78.30
2023-01-03T00:56:10.390Z,78.50
2023-01-03T00:58:37.766Z,78.60
2023-01-03T01:01:16.909Z,78.90
2023-01-03T01:03:49.346Z,79.10
2023-01-03T01:06:23.052Z,79.60
2023-01-03T01:08:51.190Z,79.70
2023-01-03T01:11:18.458Z,80.00
2023-01-03T01:13:47.042Z,80.10
2023-01-03T01:16:23.469Z,79.90
2023-01-03T01:18:53.627Z,79.90
2023-01-03T01:21:24.309Z,80.40
2023-01-03T01:23:51.631Z,80.50
2023-01-03T01:26:21.583Z,80.70
2023-01-03T01:28:49.517Z,80.10
2023-01-03T01:31:20.060Z,79.60
2023-01-03T01:33:47.682Z,79.70
2023-01-03T01:36:20.626Z,79.30
2023-01-03T01:38:52.613Z,79.30
2023-01-03T01:41:42.598Z,79.50
2023-01-03T01:44:39.613Z,79.70
2023-01-03T01:47:26.498Z,79.60
2023-01-03T01:50:15.533Z,79.70
2023-01-03T01:52:48.300Z,79.80
2023-01-03T01:55:18.495Z,79.70
2023-01-03T01:57:46.298Z,80.00
2023-01-03T02:00:14.423Z,80.20
2023-01-03T02:02:48.267Z,80.00
2023-01-03T02:05:17.616Z,79.60
2023-01-03T02:07:47.283Z,79.40
2023-01-03T02:10:14.052Z,79.60
2023-01-03T02:13:11.608Z,79.10
2023-01-03T02:16:16.230Z,78.70
2023-01-03T02:19:14.880Z,78.90
2023-01-03T02:22:08.745Z,79.10
2023-01-03T02:25:17.899Z,79.30
2023-01-03T02:28:25.276Z,79.70
2023-01-03T02:31:10.332Z,79.40
2023-01-03T02:33:55.533Z,78.60
2023-01-03T02:37:00.545Z,78.00
2023-01-03T02:39:48.199Z,77.60
2023-01-03T02:42:44.426Z,77.20
2023-01-03T02:45:27.450Z,76.70
2023-01-03T02:48:29.922Z,76.00
2023-01-03T02:51:00.380Z,75.30
2023-01-03T02:53:48.949Z,74.90
2023-01-03T02:56:29.595Z,75.00
2023-01-03T02:59:05.409Z,74.70
2023-01-03T03:01:34.739Z,74.20
2023-01-03T03:04:03.369Z,74.50
2023-01-03T03:06:41.307Z,74.50
2023-01-03T03:09:08.048Z,74.70
2023-01-03T03:11:56.392Z,74.50
2023-01-03T03:14:33.327Z,74.50
2023-01-03T03:17:08.757Z,74.40
2023-01-03T03:19:55.740Z,74.20
2023-01-03T03:23:03.569Z,74.30
2023-01-03T03:25:50.555Z,74.40
2023-01-03T03:28:37.000Z,74.60
2023-01-03T03:31:18.977Z,76.10
2023-01-03T03:33:58.156Z,76.30
2023-01-03T03:36:35.863Z,76.40
2023-01-03T03:39:03.524Z,77.10
2023-01-03T03:42:00.921Z,77.00
2023-01-03T03:45:01.005Z,77.40
2023-01-03T03:47:46.330Z,77.80
2023-01-03T03:50:30.466Z,77.90
2023-01-03T03:53:05.779Z,78.30
2023-01-03T03:55:43.788Z,78.40
2023-01-03T03:58:29.927Z,78.00
2023-01-03T04:00:58.915Z,77.80
2023-01-03T04:03:26.715Z,77.70
2023-01-03T04:05:59.701Z,77.50
2023-01-03T04:08:26.554Z,77.60
2023-01-03T04:11:05.410Z,77.70
2023-01-03T04:13:33.947Z,78.00
2023-01-03T04:16:01.384Z,78.60
2023-01-03T04:18:28.235Z,79.90
2023-01-03T04:20:55.040Z,80.10
2023-01-03T04:23:21.870Z,79.90
2023-01-03T04:25:50.982Z,81.10
2023-01-03T04:28:18.518Z,79.70
2023-01-03T04:30:46.857Z,79.40
2023-01-03T04:33:13.733Z,79.60
2023-01-03T04:35:40.542Z,79.30
2023-01-03T04:38:07.402Z,78.90
2023-01-03T04:40:35.276Z,78.90
2023-01-03T04:43:21.062Z,79.10
2023-01-03T04:45:48.981Z,78.90
2023-01-03T04:48:16.067Z,79.00
2023-01-03T04:50:48.955Z,78.90
2023-01-03T04:53:17.357Z,78.80
2023-01-03T04:55:49.663Z,78.30
2023-01-03T04:58:16.489Z,78.80
2023-01-03T05:00:43.215Z,78.50
2023-01-03T05:03:10.285Z,78.40
2023-01-03T05:05:38.577Z,78.80
2023-01-03T05:08:07.267Z,78.40
2023-01-03T05:10:34.253Z,78.40
2023-01-03T05:13:01.508Z,78.30
2023-01-03T05:15:34.847Z,78.20
2023-01-03T05:18:01.551Z,78.30
2023-01-03T05:20:46.785Z,78.60
2023-01-03T05:23:36.309Z,78.90
2023-01-03T05:26:08.905Z,79.60
2023-01-03T05:28:36.015Z,79.90
2023-01-03T05:31:02.771Z,80.20
2023-01-03T05:33:29.723Z,80.30
2023-01-03T05:35:56.805Z,80.00
2023-01-03T05:38:24.086Z,79.80
2023-01-03T05:40:51.351Z,80.40
2023-01-03T05:43:18.215Z,80.30
2023-01-03T05:45:50.675Z,80.10
2023-01-03T05:48:18.462Z,80.50
2023-01-03T05:50:45.590Z,80.90
2023-01-03T05:53:12.557Z,80.90
2023-01-03T05:55:39.616Z,80.90
2023-01-03T05:58:07.088Z,80.70
2023-01-03T06:00:34.425Z,80.30
2023-01-03T06:03:01.575Z,80.10
2023-01-03T06:05:28.456Z,79.50
2023-01-03T06:07:55.421Z,79.50
2023-01-03T06:10:22.159Z,79.20
2023-01-03T06:12:49.157Z,79.00
2023-01-03T06:15:16.074Z,79.50
2023-01-03T06:17:55.169Z,80.10
2023-01-03T06:20:22.049Z,80.90
2023-01-03T06:22:49.120Z,80.70
2023-01-03T06:25:15.895Z,80.60
2023-01-03T06:27:42.938Z,80.30
2023-01-03T06:30:10.556Z,80.30
2023-01-03T06:32:37.316Z,79.90
2023-01-03T06:35:05.431Z,79.60
2023-01-03T06:37:32.168Z,79.40
2023-01-03T06:39:58.935Z,79.60
2023-01-03T06:42:51.761Z,79.60
2023-01-03T06:45:37.296Z,79.90
2023-01-03T06:48:25.952Z,80.60
2023-01-03T06:51:11.637Z,80.30
2023-01-03T06:53:41.108Z,80.10
2023-01-03T06:56:08.699Z,80.50
2023-01-03T06:58:36.379Z,80.10
2023-01-03T07:01:05.022Z,79.90
2023-01-03T07:03:33.053Z,80.20
2023-01-03T07:06:00.767Z,80.00
2023-01-03T07:08:27.593Z,79.60
2023-01-03T07:10:55.102Z,79.70
2023-01-03T07:13:41.015Z,80.70
2023-01-03T07:16:13.441Z,80.70
2023-01-03T07:18:40.614Z,79.90
2023-01-03T07:21:08.141Z,79.70
2023-01-03T07:23:34.942Z,79.80
2023-01-03T07:26:01.741Z,80.10
2023-01-03T07:28:28.585Z,79.90
2023-01-03T07:31:01.387Z,79.70
2023-01-03T07:33:28.502Z,79.50
2023-01-03T07:36:09.369Z,79.60
2023-01-03T07:38:40.179Z,79.30
2023-01-03T07:41:10.485Z,79.30
2023-01-03T07:43:39.134Z,79.40
2023-01-03T07:46:14.956Z,78.80
2023-01-03T07:48:43.297Z,79.10
2023-01-03T07:51:12.274Z,79.00
2023-01-03T07:53:40.279Z,79.00
2023-01-03T07:56:13.450Z,78.90
2023-01-03T07:58:44.463Z,79.10
2023-01-03T08:01:22.630Z,79.60
2023-01-03T08:03:50.297Z,79.30
2023-01-03T08:06:22.596Z,79.80
2023-01-03T08:09:09.923Z,79.60
2023-01-03T08:11:55.597Z,79.60
2023-01-03T08:14:26.055Z,78.90
2023-01-03T08:16:54.027Z,77.90
2023-01-03T08:19:20.801Z,78.20
2023-01-03T08:21:47.549Z,78.50
2023-01-03T08:24:14.291Z,78.60
2023-01-03T08:26:41.054Z,79.00
2023-01-03T08:29:08.004Z,78.60
2023-01-03T08:31:39.005Z,78.10
2023-01-03T08:34:13.811Z,77.80
2023-01-03T08:36:48.989Z,78.20
2023-01-03T08:39:23.439Z,78.10
2023-01-03T08:42:00.305Z,78.20
2023-01-03T08:44:27.118Z,78.40
2023-01-03T08:46:56.335Z,78.30
2023-01-03T08:49:23.386Z,78.10
2023-01-03T08:51:50.084Z,78.80
2023-01-03T08:54:16.889Z,78.00
2023-01-03T08:56:43.584Z,78.00
2023-01-03T08:59:10.534Z,78.10
2023-01-03T09:01:37.342Z,78.10
2023-01-03T09:04:05.413Z,78.10
2023-01-03T09:06:32.431Z,78.50
2023-01-03T09:08:59.259Z,78.00
2023-01-03T09:11:26.077Z,78.30
2023-01-03T09:13:55.489Z,78.60
2023-01-03T09:16:22.458Z,78.30
2023-01-03T09:18:49.259Z,78.30
2023-01-03T09:21:16.020Z,77.60
2023-01-03T09:23:42.741Z,77.30
2023-01-03T09:26:09.539Z,77.30
2023-01-03T09:28:36.673Z,76.80
2023-01-03T09:31:04.934Z,77.20
2023-01-03T09:33:31.812Z,78.00
2023-01-03T09:35:58.592Z,78.40
2023-01-03T09:38:25.387Z,78.30
2023-01-03T09:41:12.399Z,78.40
2023-01-03T09:43:46.229Z,78.70
2023-01-03T09:46:23.087Z,79.00
2023-01-03T09:48:51.815Z,78.90
2023-01-03T09:51:45.013Z,78.80
2023-01-03T09:54:36.474Z,78.80
2023-01-03T09:57:28.469Z,78.50
2023-01-03T10:00:14.507Z,78.40
2023-01-03T10:03:22.887Z,78.10
2023-01-03T10:06:01.022Z,78.10
2023-01-03T10:08:42.656Z,77.30
2023-01-03T10:11:12.131Z,77.10
2023-01-03T10:14:14.411Z,76.70
2023-01-03T10:17:06.275Z,76.90
2023-01-03T10:19:43.049Z,77.10
2023-01-03T10:22:21.790Z,77.00
2023-01-03T10:25:13.946Z,77.20
2023-01-03T10:27:49.330Z,76.80
2023-01-03T10:30:19.636Z,77.00
2023-01-03T10:33:30.760Z,76.90
2023-01-03T10:35:58.359Z,76.40
2023-01-03T10:38:25.923Z,76.40
2023-01-03T10:40:58.831Z,76.30
2023-01-03T10:43:39.132Z,75.70
2023-01-03T10:46:11.959Z,75.70
2023-01-03T10:49:25.361Z,75.70
2023-01-03T10:51:56.973Z,75.50
2023-01-03T10:54:46.446Z,75.00
2023-01-03T10:57:37.407Z,75.20
2023-01-03T11:00:22.957Z,75.30
2023-01-03T11:02:50.862Z,75.60
2023-01-03T11:05:21.466Z,75.50
2023-01-03T11:08:01.461Z,75.30
2023-01-03T11:10:49.325Z,75.20
2023-01-03T11:13:37.002Z,75.00
2023-01-03T11:16:16.339Z,74.50
2023-01-03T11:18:44.523Z,74.40
2023-01-03T11:21:42.846Z,74.40
2023-01-03T11:24:15.948Z,73.80
2023-01-03T11:27:10.178Z,74.00
2023-01-03T11:29:56.647Z,73.80
2023-01-03T11:32:41.771Z,74.20
2023-01-03T11:35:40.013Z,73.60
2023-01-03T11:38:30.937Z,73.70
2023-01-03T11:41:07.976Z,73.30
2023-01-03T11:44:00.621Z,72.50
2023-01-03T11:46:58.256Z,71.90
2023-01-03T11:49:40.162Z,71.90
2023-01-03T11:52:10.010Z,71.90
2023-01-03T11:55:03.697Z,72.10
2023-01-03T11:58:02.259Z,72.20
2023-01-03T12:00:56.072Z,72.50
2023-01-03T12:04:01.283Z,74.30
2023-01-03T12:07:14.575Z,72.90
2023-01-03T12:10:11.345Z,72.40
2023-01-03T12:12:56.301Z,72.50
2023-01-03T12:15:40.800Z,72.00
2023-01-03T12:18:18.660Z,71.80
2023-01-03T12:20:53.402Z,72.40
2023-01-03T12:23:31.067Z,72.30
2023-01-03T12:26:02.092Z,72.10
2023-01-03T12:28:37.995Z,71.90
2023-01-03T12:31:32.415Z,72.50
2023-01-03T12:34:37.708Z,72.60
2023-01-03T12:37:26.036Z,71.50
2023-01-03T12:40:01.514Z,70.50
2023-01-03T12:42:53.860Z,70.30
2023-01-03T12:45:51.784Z,69.20
2023-01-03T12:48:44.988Z,69.40
2023-01-03T12:51:16.212Z,69.70
2023-01-03T12:53:59.267Z,69.10
2023-01-03T12:57:00.933Z,69.20
2023-01-03T12:59:30.442Z,68.90
2023-01-03T13:02:01.224Z,69.50
2023-01-03T13:04:39.052Z,69.60
2023-01-03T13:07:13.491Z,69.80
2023-01-03T13:09:45.112Z,69.20
2023-01-03T13:12:18.929Z,69.40
2023-01-03T13:15:21.220Z,69.30
2023-01-03T13:17:49.710Z,68.30
2023-01-03T13:20:31.972Z,67.90
2023-01-03T13:23:21.595Z,68.30
2023-01-03T13:26:06.601Z,68.60
2023-01-03T13:28:38.133Z,68.20
2023-01-03T13:31:35.691Z,68.30
2023-01-03T13:34:11.654Z,67.70
2023-01-03T13:37:06.204Z,68.00
2023-01-03T13:40:01.129Z,68.00
2023-01-03T13:42:33.939Z,67.90
2023-01-03T13:45:15.757Z,67.30
2023-01-03T13:47:47.365Z,67.50
2023-01-03T13:50:31.426Z,67.50
2023-01-03T13:53:10.224Z,67.60
2023-01-03T13:55:52.734Z,67.80
2023-01-03T13:58:25.162Z,68.30
2023-01-03T14:00:54.324Z,67.90
2023-01-03T14:03:51.140Z,68.30
2023-01-03T14:06:45.799Z,68.30
2023-01-03T14:09:24.359Z,68.70
2023-01-03T14:12:12.862Z,69.10
2023-01-03T14:14:41.893Z,69.40
2023-01-03T14:17:22.309Z,69.70
2023-01-03T14:19:55.685Z,70.20
2023-01-03T14:22:29.812Z,70.80
2023-01-03T14:24:59.250Z,70.30
2023-01-03T14:27:37.677Z,70.50
2023-01-03T14:30:19.122Z,70.80
2023-01-03T14:32:46.266Z,70.80
2023-01-03T14:35:39.120Z,70.90
2023-01-03T14:38:07.446Z,71.50
2023-01-03T14:40:34.620Z,71.70
2023-01-03T14:43:05.134Z,72.00
2023-01-03T14:45:31.927Z,72.40
2023-01-03T14:47:58.826Z,72.60
2023-01-03T14:50:30.787Z,72.90
2023-01-03T14:53:02.505Z,72.80
2023-01-03T14:55:33.104Z,73.10
2023-01-03T14:58:03.451Z,73.20
2023-01-03T15:00:34.607Z,73.00
2023-01-03T15:03:03.396Z,72.90
2023-01-03T15:05:38.444Z,73.00
2023-01-03T15:08:19.116Z,73.00
2023-01-03T15:11:20.395Z,73.50
2023-01-03T15:13:47.101Z,73.50
2023-01-03T15:16:30.170Z,73.50
2023-01-03T15:19:19.903Z,73.80
2023-01-03T15:21:47.281Z,73.70
2023-01-03T15:24:20.153Z,74.10
2023-01-03T15:26:51.755Z,74.10
2023-01-03T15:29:23.192Z,74.50
2023-01-03T15:32:03.905Z,74.60
2023-01-03T15:34:34.564Z,74.70
2023-01-03T15:37:21.893Z,74.90
2023-01-03T15:39:51.352Z,74.90
2023-01-03T15:42:45.843Z,74.60
2023-01-03T15:45:20.425Z,75.10
2023-01-03T15:47:48.902Z,75.20
2023-01-03T15:50:21.443Z,75.50
2023-01-03T15:52:49.502Z,75.80
2023-01-03T15:55:17.708Z,76.00
2023-01-03T15:57:54.018Z,76.50
2023-01-03T16:00:23.485Z,77.10
2023-01-03T16:02:50.727Z,77.10
2023-01-03T16:05:22.530Z,76.80
2023-01-03T16:07:50.768Z,76.90
2023-01-03T16:10:17.564Z,77.20
2023-01-03T16:12:44.518Z,77.50
2023-01-03T16:15:21.166Z,77.30
2023-01-03T16:17:49.275Z,77.10
2023-01-03T16:20:17.804Z,76.90
2023-01-03T16:23:01.744Z,76.80
2023-01-03T16:25:29.623Z,76.70
2023-01-03T16:27:56.538Z,76.90
2023-01-03T16:30:24.379Z,76.70
2023-01-03T16:32:51.577Z,76.40
2023-01-03T16:35:20.596Z,76.30
2023-01-03T16:37:47.435Z,76.40
2023-01-03T16:40:20.449Z,76.40
2023-01-03T16:42:47.623Z,76.30
2023-01-03T16:45:30.574Z,76.10
2023-01-03T16:47:58.951Z,76.50
2023-01-03T16:50:26.076Z,76.30
2023-01-03T16:52:55.481Z,76.40
2023-01-03T16:55:35.380Z,76.50
2023-01-03T16:58:02.426Z,75.80
2023-01-03T17:00:32.685Z,74.80
2023-01-03T17:03:00.633Z,75.00
2023-01-03T17:05:32.764Z,75.20
2023-01-03T17:08:17.527Z,75.80
2023-01-03T17:10:47.020Z,76.30
2023-01-03T17:13:26.333Z,76.70
2023-01-03T17:15:54.447Z,76.90
2023-01-03T17:18:23.673Z,76.70
2023-01-03T17:21:00.554Z,76.60
2023-01-03T17:23:29.750Z,76.10
2023-01-03T17:25:56.981Z,76.10
2023-01-03T17:28:24.035Z,76.10
2023-01-03T17:30:56.348Z,75.60
2023-01-03T17:33:30.242Z,75.60
2023-01-03T17:36:00.988Z,75.50
2023-01-03T17:38:29.737Z,75.70
2023-01-03T17:40:57.334Z,75.90
2023-01-03T17:43:25.350Z,75.90
2023-01-03T17:46:16.317Z,76.30
2023-01-03T17:49:24.371Z,76.50
2023-01-03T17:51:57.762Z,76.70
2023-01-03T17:54:28.170Z,77.00
2023-01-03T17:56:58.292Z,77.20
2023-01-03T17:59:25.891Z,77.40
2023-01-03T18:01:54.399Z,77.70
2023-01-03T18:04:22.461Z,77.90
2023-01-03T18:07:02.621Z,78.30
2023-01-03T18:09:31.355Z,78.30
2023-01-03T18:11:58.162Z,78.40
2023-01-03T18:14:25.301Z,78.70
2023-01-03T18:16:55.253Z,78.70
2023-01-03T18:19:22.205Z,78.60
2023-01-03T18:21:49.188Z,78.80
2023-01-03T18:24:16.100Z,79.00
2023-01-03T18:26:47.819Z,78.60
2023-01-03T18:29:16.235Z,78.30
2023-01-03T18:31:44.451Z,78.10
2023-01-03T18:34:12.370Z,78.00
2023-01-03T18:36:42.020Z,78.20
2023-01-03T18:39:35.837Z,77.60
2023-01-03T18:42:21.159Z,77.50
2023-01-03T18:44:47.996Z,77.20
2023-01-03T18:47:15.461Z,77.00
2023-01-03T18:49:42.509Z,76.50
2023-01-03T18:52:30.353Z,76.80
2023-01-03T18:54:57.311Z,77.00
2023-01-03T18:57:24.209Z,77.50
2023-01-03T18:59:51.054Z,77.30
2023-01-03T19:02:20.681Z,77.50
2023-01-03T19:04:51.585Z,77.80
2023-01-03T19:07:32.635Z,77.80
2023-01-03T19:10:00.187Z,77.60
2023-01-03T19:12:27.129Z,77.80
2023-01-03T19:14:53.875Z,77.80
2023-01-03T19:17:20.951Z,78.00
2023-01-03T19:19:47.741Z,77.40
2023-01-03T19:22:33.401Z,77.40
2023-01-03T19:25:03.567Z,77.00
2023-01-03T19:27:45.143Z,77.20
2023-01-03T19:30:38.154Z,77.40
2023-01-03T19:33:10.950Z,78.00
2023-01-03T19:35:37.941Z,78.40
2023-01-03T19:38:04.760Z,78.90
2023-01-03T19:40:34.323Z,79.20
2023-01-03T19:43:01.215Z,79.40
2023-01-03T19:45:40.280Z,79.40
2023-01-03T19:48:15.628Z,79.40
2023-01-03T19:50:42.486Z,79.60
2023-01-03T19:53:09.457Z,79.40
2023-01-03T19:55:40.500Z,79.40
2023-01-03T19:58:24.962Z,79.40
2023-01-03T20:00:52.806Z,79.60
2023-01-03T20:03:40.068Z,79.70
2023-01-03T20:06:11.650Z,79.60
2023-01-03T20:08:38.698Z,79.30
2023-01-03T20:11:05.782Z,79.30
2023-01-03T20:13:32.828Z,79.30
2023-01-03T20:16:01.859Z,79.10
2023-01-03T20:18:34.150Z,78.90
2023-01-03T20:21:09.951Z,78.70
2023-01-03T20:23:42.323Z,78.70
2023-01-03T20:26:30.240Z,78.70
2023-01-03T20:28:58.376Z,78.60
2023-01-03T20:31:26.246Z,78.80
2023-01-03T20:33:53.127Z,78.90
2023-01-03T20:36:24.119Z,78.50
2023-01-03T20:38:54.340Z,78.10
2023-01-03T20:41:21.394Z,78.20
2023-01-03T20:43:50.016Z,78.20
2023-01-03T20:46:21.797Z,78.30
2023-01-03T20:48:57.311Z,78.90
2023-01-03T20:51:27.200Z,78.70
2023-01-03T20:53:55.033Z,78.90
2023-01-03T20:56:23.137Z,79.00
2023-01-03T20:58:49.940Z,79.30
2023-01-03T21:01:16.876Z,79.30
2023-01-03T21:03:43.764Z,79.40
2023-01-03T21:06:20.083Z,79.50
2023-01-03T21:08:56.675Z,79.50
2023-01-03T21:11:31.706Z,79.20
2023-01-03T21:14:00.489Z,79.00
2023-01-03T21:16:36.361Z,79.00
2023-01-03T21:19:14.084Z,79.00
2023-01-03T21:21:43.287Z,79.10
2023-01-03T21:24:11.394Z,78.80
2023-01-03T21:26:38.367Z,78.90
2023-01-03T21:29:05.664Z,78.80
2023-01-03T21:31:34.454Z,78.50
2023-01-03T21:34:03.241Z,78.50
2023-01-03T21:36:32.620Z,78.70
2023-01-03T21:39:00.374Z,78.70
2023-01-03T21:41:33.032Z,78.60
2023-01-03T21:44:03.358Z,78.70
2023-01-03T21:46:30.571Z,78.80
2023-01-03T21:48:57.365Z,78.90
2023-01-03T21:51:37.204Z,78.70
2023-01-03T21:54:09.298Z,79.00
2023-01-03T21:56:45.147Z,79.20
2023-01-03T21:59:16.323Z,79.20
2023-01-03T22:02:05.810Z,79.20
2023-01-03T22:04:33.857Z,79.60
2023-01-03T22:07:01.441Z,79.60
2023-01-03T22:09:48.283Z,79.40
2023-01-03T22:12:16.361Z,79.40
2023-01-03T22:14:47.382Z,79.20
2023-01-03T22:17:14.520Z,78.90
2023-01-03T22:19:41.607Z,78.70
2023-01-03T22:22:08.401Z,78.60
2023-01-03T22:24:35.472Z,78.50
2023-01-03T22:27:02.164Z,78.40
2023-01-03T22:29:29.221Z,78.30
2023-01-03T22:31:56.064Z,78.30
2023-01-03T22:34:22.807Z,78.00
2023-01-03T22:36:49.668Z,78.00
2023-01-03T22:39:16.434Z,77.80
2023-01-03T22:41:43.137Z,77.70
2023-01-03T22:44:10.841Z,77.60
2023-01-03T22:46:37.941Z,77.80
2023-01-03T22:49:04.629Z,77.70
2023-01-03T22:51:31.386Z,77.40
2023-01-03T22:53:58.255Z,77.20
2023-01-03T22:56:25.027Z,77.60
2023-01-03T22:58:51.785Z,77.30
2023-01-03T23:01:22.613Z,77.60
2023-01-03T23:03:51.125Z,77.90
2023-01-03T23:06:20.670Z,78.20
2023-01-03T23:08:51.432Z,78.50
2023-01-03T23:11:39.770Z,78.30
2023-01-03T23:14:10.179Z,78.30
2023-01-03T23:16:38.481Z,78.40
2023-01-03T23:19:07.878Z,78.50
2023-01-03T23:21:34.947Z,78.50
2023-01-03T23:24:02.126Z,78.30
2023-01-03T23:26:29.008Z,78.30
2023-01-03T23:28:57.681Z,78.30
2023-01-03T23:31:27.328Z,78.40
2023-01-03T23:33:58.562Z,78.10
2023-01-03T23:36:26.143Z,78.40
2023-01-03T23:38:53.964Z,78.40
2023-01-03T23:41:22.528Z,78.10
2023-01-03T23:43:50.367Z,77.90
2023-01-03T23:46:20.108Z,78.10
2023-01-03T23:48:47.549Z,78.00
2023-01-03T23:51:14.854Z,78.20
2023-01-03T23:53:43.280Z,78.30
2023-01-03T23:56:13.793Z,78.50
2023-01-03T23:58:40.707Z,78.20
